sensor_id;sensor_type;location;lat;lon;timestamp;P1;durP1;ratioP1;P2;durP2;ratioP2
22675;SDS011;12521;43.310;21.876;2023-07-30T00:01:51;8.0;;;6.0;;
22675;SDS011;12521;43.310;21.876;2023-07-30T00:06:27;8.0;;;6.0;;
22675;SDS011;12521;43.310;21.876;2023-07-30T00:11:03;8.0;;;6.0;;
22675;SDS011;12521;43.310;21.876;2023-07-30T00:15:40;8.0;;;6.0;;
22675;SDS011;12521;43.310;21.876;2023-07-30T00:20:16;8.0;;;6.0;;
22675;SDS011;12521;43.310;21.876;2023-07-30T00:24:53;8.0;;;6.0;;
22675;SDS011;12521;43.310;21.876;2023-07-30T00:29:29;8.0;;;6.0;;
22675;SDS011;12521;43.310;21.876;2023-07-30T00:34:05;8.0;;;6.0;;
22675;SDS011;12521;43.310;21.876;2023-07-30T00:38:42;8.0;;;6.0;;
22675;SDS011;12521;43.310;21.876;2023-07-30T00:43:18;8.0;;;6.0;;
22675;SDS011;12521;43.310;21.876;2023-07-30T00:47:55;8.0;;;6.0;;
22675;SDS011;12521;43.310;21.876;2023-07-30T00:52:35;8.0;;;6.0;;
22675;SDS011;12521;43.310;21.876;2023-07-30T00:57:16;8.0;;;6.0;;
22675;SDS011;12521;43.310;21.876;2023-07-30T01:01:59;8.0;;;6.0;;
22675;SDS011;12521;43.310;21.876;2023-07-30T01:06:39;8.0;;;6.0;;
22675;SDS011;12521;43.310;21.876;2023-07-30T01:11:18;8.0;;;6.0;;
22675;SDS011;12521;43.310;21.876;2023-07-30T01:15:57;8.0;;;6.0;;
22675;SDS011;12521;43.310;21.876;2023-07-30T01:20:34;7.0;;;6.0;;
22675;SDS011;12521;43.310;21.876;2023-07-30T01:25:11;7.0;;;6.0;;
22675;SDS011;12521;43.310;21.876;2023-07-30T01:30:09;12.0;;;6.0;;
22675;SDS011;12521;43.310;21.876;2023-07-30T01:35:02;12.0;;;6.0;;
22675;SDS011;12521;43.310;21.876;2023-07-30T01:39:49;16.0;;;6.0;;
22675;SDS011;12521;43.310;21.876;2023-07-30T01:44:28;16.0;;;6.0;;
22675;SDS011;12521;43.310;21.876;2023-07-30T01:49:04;12.0;;;6.0;;
22675;SDS011;12521;43.310;21.876;2023-07-30T01:53:41;12.0;;;6.0;;
22675;SDS011;12521;43.310;21.876;2023-07-30T01:58:18;8.0;;;7.0;;
22675;SDS011;12521;43.310;21.876;2023-07-30T02:02:54;8.0;;;7.0;;
22675;SDS011;12521;43.310;21.876;2023-07-30T02:07:31;8.0;;;6.0;;
22675;SDS011;12521;43.310;21.876;2023-07-30T02:12:08;8.0;;;6.0;;
22675;SDS011;12521;43.310;21.876;2023-07-30T02:16:45;9.0;;;6.0;;
22675;SDS011;12521;43.310;21.876;2023-07-30T02:21:22;9.0;;;6.0;;
22675;SDS011;12521;43.310;21.876;2023-07-30T02:25:59;9.0;;;6.0;;
22675;SDS011;12521;43.310;21.876;2023-07-30T02:30:36;9.0;;;6.0;;
22675;SDS011;12521;43.310;21.876;2023-07-30T02:35:13;9.0;;;6.0;;
22675;SDS011;12521;43.310;21.876;2023-07-30T02:39:50;9.0;;;6.0;;
22675;SDS011;12521;43.310;21.876;2023-07-30T02:44:26;9.0;;;6.0;;
22675;SDS011;12521;43.310;21.876;2023-07-30T02:49:02;8.0;;;6.0;;
22675;SDS011;12521;43.310;21.876;2023-07-30T02:53:38;8.0;;;6.0;;
22675;SDS011;12521;43.310;21.876;2023-07-30T02:58:15;7.0;;;6.0;;
22675;SDS011;12521;43.310;21.876;2023-07-30T03:02:51;7.0;;;6.0;;
22675;SDS011;12521;43.310;21.876;2023-07-30T03:07:28;8.0;;;6.0;;
22675;SDS011;12521;43.310;21.876;2023-07-30T03:12:07;8.0;;;6.0;;
22675;SDS011;12521;43.310;21.876;2023-07-30T03:16:44;8.0;;;6.0;;
22675;SDS011;12521;43.310;21.876;2023-07-30T03:21:20;8.0;;;6.0;;
22675;SDS011;12521;43.310;21.876;2023-07-30T03:25:59;8.0;;;6.0;;
22675;SDS011;12521;43.310;21.876;2023-07-30T03:30:36;8.0;;;6.0;;
22675;SDS011;12521;43.310;21.876;2023-07-30T03:35:13;8.0;;;6.0;;
22675;SDS011;12521;43.310;21.876;2023-07-30T03:39:50;8.0;;;6.0;;
22675;SDS011;12521;43.310;21.876;2023-07-30T03:44:27;8.0;;;6.0;;
22675;SDS011;12521;43.310;21.876;2023-07-30T03:49:03;8.0;;;6.0;;
22675;SDS011;12521;43.310;21.876;2023-07-30T03:53:40;8.0;;;6.0;;
22675;SDS011;12521;43.310;21.876;2023-07-30T03:58:17;7.0;;;6.0;;
22675;SDS011;12521;43.310;21.876;2023-07-30T04:02:54;7.0;;;6.0;;
22675;SDS011;12521;43.310;21.876;2023-07-30T04:07:30;7.0;;;6.0;;
22675;SDS011;12521;43.310;21.876;2023-07-30T04:12:08;7.0;;;6.0;;
22675;SDS011;12521;43.310;21.876;2023-07-30T04:16:45;7.0;;;5.0;;
22675;SDS011;12521;43.310;21.876;2023-07-30T04:21:21;7.0;;;5.0;;
22675;SDS011;12521;43.310;21.876;2023-07-30T04:25:58;7.0;;;5.0;;
22675;SDS011;12521;43.310;21.876;2023-07-30T04:30:35;8.0;;;6.0;;
22675;SDS011;12521;43.310;21.876;2023-07-30T04:35:12;8.0;;;6.0;;
22675;SDS011;12521;43.310;21.876;2023-07-30T04:39:49;10.0;;;7.0;;
22675;SDS011;12521;43.310;21.876;2023-07-30T04:44:27;10.0;;;7.0;;
22675;SDS011;12521;43.310;21.876;2023-07-30T04:49:04;10.0;;;7.0;;
22675;SDS011;12521;43.310;21.876;2023-07-30T04:53:40;10.0;;;7.0;;
22675;SDS011;12521;43.310;21.876;2023-07-30T04:58:17;9.0;;;7.0;;
22675;SDS011;12521;43.310;21.876;2023-07-30T05:02:54;9.0;;;7.0;;
22675;SDS011;12521;43.310;21.876;2023-07-30T05:07:30;9.0;;;7.0;;
22675;SDS011;12521;43.310;21.876;2023-07-30T05:12:08;9.0;;;7.0;;
22675;SDS011;12521;43.310;21.876;2023-07-30T05:16:44;9.0;;;7.0;;
22675;SDS011;12521;43.310;21.876;2023-07-30T05:21:21;9.0;;;7.0;;
22675;SDS011;12521;43.310;21.876;2023-07-30T05:25:57;9.0;;;7.0;;
22675;SDS011;12521;43.310;21.876;2023-07-30T05:30:33;8.0;;;7.0;;
22675;SDS011;12521;43.310;21.876;2023-07-30T05:35:10;8.0;;;7.0;;
22675;SDS011;12521;43.310;21.876;2023-07-30T05:39:46;8.0;;;7.0;;
22675;SDS011;12521;43.310;21.876;2023-07-30T05:44:22;8.0;;;7.0;;
22675;SDS011;12521;43.310;21.876;2023-07-30T05:48:58;10.0;;;8.0;;
22675;SDS011;12521;43.310;21.876;2023-07-30T05:53:36;10.0;;;8.0;;
22675;SDS011;12521;43.310;21.876;2023-07-30T05:58:14;11.0;;;8.0;;
22675;SDS011;12521;43.310;21.876;2023-07-30T06:02:50;11.0;;;8.0;;
22675;SDS011;12521;43.310;21.876;2023-07-30T06:07:27;9.0;;;8.0;;
22675;SDS011;12521;43.310;21.876;2023-07-30T06:12:05;9.0;;;8.0;;
22675;SDS011;12521;43.310;21.876;2023-07-30T06:16:43;7.0;;;7.0;;
22675;SDS011;12521;43.310;21.876;2023-07-30T06:21:20;7.0;;;7.0;;
22675;SDS011;12521;43.310;21.876;2023-07-30T06:25:57;7.0;;;7.0;;
22675;SDS011;12521;43.310;21.876;2023-07-30T06:30:33;8.0;;;8.0;;
22675;SDS011;12521;43.310;21.876;2023-07-30T06:35:10;8.0;;;8.0;;
22675;SDS011;12521;43.310;21.876;2023-07-30T06:39:47;10.0;;;8.0;;
22675;SDS011;12521;43.310;21.876;2023-07-30T06:44:24;10.0;;;8.0;;
22675;SDS011;12521;43.310;21.876;2023-07-30T06:49:00;10.0;;;8.0;;
22675;SDS011;12521;43.310;21.876;2023-07-30T06:53:37;10.0;;;8.0;;
22675;SDS011;12521;43.310;21.876;2023-07-30T06:58:13;10.0;;;7.0;;
22675;SDS011;12521;43.310;21.876;2023-07-30T07:02:49;10.0;;;7.0;;
22675;SDS011;12521;43.310;21.876;2023-07-30T07:07:26;12.0;;;8.0;;
22675;SDS011;12521;43.310;21.876;2023-07-30T07:12:06;12.0;;;8.0;;
22675;SDS011;12521;43.310;21.876;2023-07-30T07:16:44;13.0;;;9.0;;
22675;SDS011;12521;43.310;21.876;2023-07-30T07:21:21;13.0;;;9.0;;
22675;SDS011;12521;43.310;21.876;2023-07-30T07:25:58;13.0;;;9.0;;
22675;SDS011;12521;43.310;21.876;2023-07-30T07:30:36;11.0;;;9.0;;
22675;SDS011;12521;43.310;21.876;2023-07-30T07:35:13;11.0;;;9.0;;
22675;SDS011;12521;43.310;21.876;2023-07-30T07:39:49;9.0;;;9.0;;
22675;SDS011;12521;43.310;21.876;2023-07-30T07:44:26;9.0;;;9.0;;
22675;SDS011;12521;43.310;21.876;2023-07-30T07:49:03;10.0;;;8.0;;
22675;SDS011;12521;43.310;21.876;2023-07-30T07:53:40;10.0;;;8.0;;
22675;SDS011;12521;43.310;21.876;2023-07-30T07:58:16;10.0;;;8.0;;
22675;SDS011;12521;43.310;21.876;2023-07-30T08:02:53;10.0;;;8.0;;
22675;SDS011;12521;43.310;21.876;2023-07-30T08:07:29;9.0;;;7.0;;
22675;SDS011;12521;43.310;21.876;2023-07-30T08:12:07;9.0;;;7.0;;
22675;SDS011;12521;43.310;21.876;2023-07-30T08:16:44;8.0;;;6.0;;
22675;SDS011;12521;43.310;21.876;2023-07-30T08:21:20;8.0;;;6.0;;
22675;SDS011;12521;43.310;21.876;2023-07-30T08:25:56;8.0;;;6.0;;
22675;SDS011;12521;43.310;21.876;2023-07-30T08:30:33;8.0;;;6.0;;
22675;SDS011;12521;43.310;21.876;2023-07-30T08:35:10;8.0;;;6.0;;
22675;SDS011;12521;43.310;21.876;2023-07-30T08:39:47;8.0;;;7.0;;
22675;SDS011;12521;43.310;21.876;2023-07-30T08:44:25;8.0;;;7.0;;
22675;SDS011;12521;43.310;21.876;2023-07-30T08:49:02;8.0;;;7.0;;
22675;SDS011;12521;43.310;21.876;2023-07-30T08:53:40;8.0;;;7.0;;
22675;SDS011;12521;43.310;21.876;2023-07-30T08:58:21;8.0;;;7.0;;
22675;SDS011;12521;43.310;21.876;2023-07-30T09:03:08;8.0;;;7.0;;
22675;SDS011;12521;43.310;21.876;2023-07-30T09:07:51;8.0;;;7.0;;
22675;SDS011;12521;43.310;21.876;2023-07-30T09:12:31;8.0;;;7.0;;
22675;SDS011;12521;43.310;21.876;2023-07-30T09:17:17;8.0;;;7.0;;
22675;SDS011;12521;43.310;21.876;2023-07-30T09:21:55;8.0;;;7.0;;
22675;SDS011;12521;43.310;21.876;2023-07-30T09:26:45;8.0;;;7.0;;
22675;SDS011;12521;43.310;21.876;2023-07-30T09:31:22;8.0;;;7.0;;
22675;SDS011;12521;43.310;21.876;2023-07-30T09:36:04;8.0;;;7.0;;
22675;SDS011;12521;43.310;21.876;2023-07-30T09:40:45;8.0;;;7.0;;
22675;SDS011;12521;43.310;21.876;2023-07-30T09:45:26;8.0;;;7.0;;
22675;SDS011;12521;43.310;21.876;2023-07-30T09:50:06;8.0;;;6.0;;
22675;SDS011;12521;43.310;21.876;2023-07-30T09:54:46;8.0;;;6.0;;
22675;SDS011;12521;43.310;21.876;2023-07-30T09:59:28;7.0;;;6.0;;
22675;SDS011;12521;43.310;21.876;2023-07-30T10:04:10;7.0;;;6.0;;
22675;SDS011;12521;43.310;21.876;2023-07-30T10:08:54;7.0;;;6.0;;
22675;SDS011;12521;43.310;21.876;2023-07-30T10:13:41;7.0;;;6.0;;
22675;SDS011;12521;43.310;21.876;2023-07-30T10:18:19;7.0;;;6.0;;
22675;SDS011;12521;43.310;21.876;2023-07-30T10:23:01;7.0;;;6.0;;
22675;SDS011;12521;43.310;21.876;2023-07-30T10:27:42;8.0;;;7.0;;
22675;SDS011;12521;43.310;21.876;2023-07-30T10:32:18;8.0;;;7.0;;
22675;SDS011;12521;43.310;21.876;2023-07-30T10:36:56;9.0;;;8.0;;
22675;SDS011;12521;43.310;21.876;2023-07-30T10:41:32;9.0;;;8.0;;
22675;SDS011;12521;43.310;21.876;2023-07-30T10:46:15;9.0;;;8.0;;
22675;SDS011;12521;43.310;21.876;2023-07-30T10:50:52;12.0;;;8.0;;
22675;SDS011;12521;43.310;21.876;2023-07-30T10:55:30;12.0;;;8.0;;
22675;SDS011;12521;43.310;21.876;2023-07-30T11:00:11;15.0;;;8.0;;
22675;SDS011;12521;43.310;21.876;2023-07-30T11:04:48;15.0;;;8.0;;
22675;SDS011;12521;43.310;21.876;2023-07-30T11:09:28;12.0;;;8.0;;
22675;SDS011;12521;43.310;21.876;2023-07-30T11:14:04;12.0;;;8.0;;
22675;SDS011;12521;43.310;21.876;2023-07-30T11:18:44;9.0;;;7.0;;
22675;SDS011;12521;43.310;21.876;2023-07-30T11:23:23;9.0;;;7.0;;
22675;SDS011;12521;43.310;21.876;2023-07-30T11:28:00;9.0;;;7.0;;
22675;SDS011;12521;43.310;21.876;2023-07-30T11:32:36;9.0;;;7.0;;
22675;SDS011;12521;43.310;21.876;2023-07-30T11:37:14;9.0;;;7.0;;
22675;SDS011;12521;43.310;21.876;2023-07-30T11:41:52;9.0;;;7.0;;
22675;SDS011;12521;43.310;21.876;2023-07-30T11:46:29;9.0;;;7.0;;
22675;SDS011;12521;43.310;21.876;2023-07-30T11:51:06;8.0;;;7.0;;
22675;SDS011;12521;43.310;21.876;2023-07-30T11:55:55;8.0;;;7.0;;
22675;SDS011;12521;43.310;21.876;2023-07-30T12:00:33;7.0;;;7.0;;
22675;SDS011;12521;43.310;21.876;2023-07-30T12:05:11;7.0;;;7.0;;
22675;SDS011;12521;43.310;21.876;2023-07-30T12:09:47;6.0;;;6.0;;
22675;SDS011;12521;43.310;21.876;2023-07-30T12:14:43;6.0;;;6.0;;
22675;SDS011;12521;43.310;21.876;2023-07-30T12:19:29;6.0;;;6.0;;
22675;SDS011;12521;43.310;21.876;2023-07-30T12:24:06;6.0;;;6.0;;
22675;SDS011;12521;43.310;21.876;2023-07-30T12:28:42;6.0;;;6.0;;
22675;SDS011;12521;43.310;21.876;2023-07-30T12:33:19;6.0;;;6.0;;
22675;SDS011;12521;43.310;21.876;2023-07-30T12:37:55;6.0;;;6.0;;
22675;SDS011;12521;43.310;21.876;2023-07-30T12:42:33;6.0;;;6.0;;
22675;SDS011;12521;43.310;21.876;2023-07-30T12:47:10;6.0;;;6.0;;
22675;SDS011;12521;43.310;21.876;2023-07-30T12:51:46;6.0;;;6.0;;
22675;SDS011;12521;43.310;21.876;2023-07-30T12:56:23;6.0;;;6.0;;
22675;SDS011;12521;43.310;21.876;2023-07-30T13:01:01;7.0;;;6.0;;
22675;SDS011;12521;43.310;21.876;2023-07-30T13:05:39;7.0;;;6.0;;
22675;SDS011;12521;43.310;21.876;2023-07-30T13:10:16;8.0;;;6.0;;
22675;SDS011;12521;43.310;21.876;2023-07-30T13:14:53;8.0;;;6.0;;
22675;SDS011;12521;43.310;21.876;2023-07-30T13:19:29;8.0;;;7.0;;
22675;SDS011;12521;43.310;21.876;2023-07-30T13:24:06;8.0;;;7.0;;
22675;SDS011;12521;43.310;21.876;2023-07-30T13:28:42;9.0;;;6.0;;
22675;SDS011;12521;43.310;21.876;2023-07-30T13:33:18;9.0;;;6.0;;
22675;SDS011;12521;43.310;21.876;2023-07-30T13:37:54;10.0;;;6.0;;
22675;SDS011;12521;43.310;21.876;2023-07-30T13:42:31;10.0;;;6.0;;
22675;SDS011;12521;43.310;21.876;2023-07-30T13:47:07;9.0;;;6.0;;
22675;SDS011;12521;43.310;21.876;2023-07-30T13:51:43;9.0;;;6.0;;
22675;SDS011;12521;43.310;21.876;2023-07-30T13:56:19;9.0;;;6.0;;
22675;SDS011;12521;43.310;21.876;2023-07-30T14:00:56;8.0;;;7.0;;
22675;SDS011;12521;43.310;21.876;2023-07-30T14:05:32;8.0;;;7.0;;
22675;SDS011;12521;43.310;21.876;2023-07-30T14:10:09;8.0;;;6.0;;
22675;SDS011;12521;43.310;21.876;2023-07-30T14:14:46;8.0;;;6.0;;
22675;SDS011;12521;43.310;21.876;2023-07-30T14:19:23;7.0;;;6.0;;
22675;SDS011;12521;43.310;21.876;2023-07-30T14:24:00;7.0;;;6.0;;
22675;SDS011;12521;43.310;21.876;2023-07-30T14:28:36;7.0;;;6.0;;
22675;SDS011;12521;43.310;21.876;2023-07-30T14:33:14;7.0;;;6.0;;
22675;SDS011;12521;43.310;21.876;2023-07-30T14:37:50;7.0;;;6.0;;
22675;SDS011;12521;43.310;21.876;2023-07-30T14:42:27;7.0;;;6.0;;
22675;SDS011;12521;43.310;21.876;2023-07-30T14:47:05;7.0;;;6.0;;
22675;SDS011;12521;43.310;21.876;2023-07-30T14:51:42;7.0;;;6.0;;
22675;SDS011;12521;43.310;21.876;2023-07-30T14:56:18;7.0;;;6.0;;
22675;SDS011;12521;43.310;21.876;2023-07-30T15:00:55;7.0;;;6.0;;
22675;SDS011;12521;43.310;21.876;2023-07-30T15:05:33;7.0;;;6.0;;
22675;SDS011;12521;43.310;21.876;2023-07-30T15:10:10;7.0;;;6.0;;
22675;SDS011;12521;43.310;21.876;2023-07-30T15:14:47;7.0;;;6.0;;
22675;SDS011;12521;43.310;21.876;2023-07-30T15:19:24;7.0;;;6.0;;
22675;SDS011;12521;43.310;21.876;2023-07-30T15:24:01;7.0;;;6.0;;
22675;SDS011;12521;43.310;21.876;2023-07-30T15:28:37;8.0;;;6.0;;
22675;SDS011;12521;43.310;21.876;2023-07-30T15:33:14;8.0;;;6.0;;
22675;SDS011;12521;43.310;21.876;2023-07-30T15:37:51;9.0;;;7.0;;
22675;SDS011;12521;43.310;21.876;2023-07-30T15:42:28;9.0;;;7.0;;
22675;SDS011;12521;43.310;21.876;2023-07-30T15:47:05;8.0;;;7.0;;
22675;SDS011;12521;43.310;21.876;2023-07-30T15:51:42;8.0;;;7.0;;
22675;SDS011;12521;43.310;21.876;2023-07-30T15:56:19;8.0;;;7.0;;
22675;SDS011;12521;43.310;21.876;2023-07-30T16:00:55;8.0;;;7.0;;
22675;SDS011;12521;43.310;21.876;2023-07-30T16:05:32;8.0;;;7.0;;
22675;SDS011;12521;43.310;21.876;2023-07-30T16:10:10;9.0;;;8.0;;
22675;SDS011;12521;43.310;21.876;2023-07-30T16:14:46;9.0;;;8.0;;
22675;SDS011;12521;43.310;21.876;2023-07-30T16:19:26;10.0;;;8.0;;
22675;SDS011;12521;43.310;21.876;2023-07-30T16:24:03;10.0;;;8.0;;
22675;SDS011;12521;43.310;21.876;2023-07-30T16:28:42;9.0;;;8.0;;
22675;SDS011;12521;43.310;21.876;2023-07-30T16:33:19;9.0;;;8.0;;
22675;SDS011;12521;43.310;21.876;2023-07-30T16:37:57;8.0;;;7.0;;
22675;SDS011;12521;43.310;21.876;2023-07-30T16:42:33;8.0;;;7.0;;
22675;SDS011;12521;43.310;21.876;2023-07-30T16:47:10;9.0;;;8.0;;
22675;SDS011;12521;43.310;21.876;2023-07-30T16:51:47;9.0;;;8.0;;
22675;SDS011;12521;43.310;21.876;2023-07-30T16:56:24;9.0;;;8.0;;
22675;SDS011;12521;43.310;21.876;2023-07-30T17:01:01;10.0;;;8.0;;
22675;SDS011;12521;43.310;21.876;2023-07-30T17:05:37;10.0;;;8.0;;
22675;SDS011;12521;43.310;21.876;2023-07-30T17:10:14;12.0;;;6.0;;
22675;SDS011;12521;43.310;21.876;2023-07-30T17:14:52;12.0;;;6.0;;
22675;SDS011;12521;43.310;21.876;2023-07-30T17:19:29;14.0;;;5.0;;
22675;SDS011;12521;43.310;21.876;2023-07-30T17:24:06;14.0;;;5.0;;
22675;SDS011;12521;43.310;21.876;2023-07-30T17:28:42;14.0;;;6.0;;
22675;SDS011;12521;43.310;21.876;2023-07-30T17:33:19;14.0;;;6.0;;
22675;SDS011;12521;43.310;21.876;2023-07-30T17:37:55;13.0;;;7.0;;
22675;SDS011;12521;43.310;21.876;2023-07-30T17:42:31;13.0;;;7.0;;
22675;SDS011;12521;43.310;21.876;2023-07-30T17:47:08;12.0;;;7.0;;
22675;SDS011;12521;43.310;21.876;2023-07-30T17:51:45;12.0;;;7.0;;
22675;SDS011;12521;43.310;21.876;2023-07-30T17:56:21;12.0;;;7.0;;
22675;SDS011;12521;43.310;21.876;2023-07-30T18:01:04;10.0;;;7.0;;
22675;SDS011;12521;43.310;21.876;2023-07-30T18:05:47;10.0;;;7.0;;
22675;SDS011;12521;43.310;21.876;2023-07-30T18:10:24;9.0;;;7.0;;
22675;SDS011;12521;43.310;21.876;2023-07-30T18:15:01;9.0;;;7.0;;
22675;SDS011;12521;43.310;21.876;2023-07-30T18:19:38;8.0;;;7.0;;
22675;SDS011;12521;43.310;21.876;2023-07-30T18:24:15;8.0;;;7.0;;
22675;SDS011;12521;43.310;21.876;2023-07-30T18:28:51;8.0;;;6.0;;
22675;SDS011;12521;43.310;21.876;2023-07-30T18:33:28;8.0;;;6.0;;
22675;SDS011;12521;43.310;21.876;2023-07-30T18:38:05;7.0;;;6.0;;
22675;SDS011;12521;43.310;21.876;2023-07-30T18:42:41;7.0;;;6.0;;
22675;SDS011;12521;43.310;21.876;2023-07-30T18:47:17;9.0;;;6.0;;
22675;SDS011;12521;43.310;21.876;2023-07-30T18:51:54;9.0;;;6.0;;
22675;SDS011;12521;43.310;21.876;2023-07-30T18:56:30;9.0;;;6.0;;
22675;SDS011;12521;43.310;21.876;2023-07-30T19:01:06;11.0;;;5.0;;
22675;SDS011;12521;43.310;21.876;2023-07-30T19:05:49;11.0;;;5.0;;
22675;SDS011;12521;43.310;21.876;2023-07-30T19:10:26;8.0;;;4.0;;
22675;SDS011;12521;43.310;21.876;2023-07-30T19:15:04;8.0;;;4.0;;
22675;SDS011;12521;43.310;21.876;2023-07-30T19:19:43;6.0;;;4.0;;
22675;SDS011;12521;43.310;21.876;2023-07-30T19:24:20;6.0;;;4.0;;
22675;SDS011;12521;43.310;21.876;2023-07-30T19:28:57;6.0;;;4.0;;
22675;SDS011;12521;43.310;21.876;2023-07-30T19:33:38;6.0;;;4.0;;
22675;SDS011;12521;43.310;21.876;2023-07-30T19:38:15;6.0;;;5.0;;
22675;SDS011;12521;43.310;21.876;2023-07-30T19:42:52;6.0;;;5.0;;
22675;SDS011;12521;43.310;21.876;2023-07-30T19:47:29;6.0;;;4.0;;
22675;SDS011;12521;43.310;21.876;2023-07-30T19:52:07;6.0;;;4.0;;
22675;SDS011;12521;43.310;21.876;2023-07-30T19:56:44;6.0;;;4.0;;
22675;SDS011;12521;43.310;21.876;2023-07-30T20:01:20;6.0;;;4.0;;
22675;SDS011;12521;43.310;21.876;2023-07-30T20:06:00;6.0;;;4.0;;
22675;SDS011;12521;43.310;21.876;2023-07-30T20:10:41;6.0;;;5.0;;
22675;SDS011;12521;43.310;21.876;2023-07-30T20:15:19;6.0;;;5.0;;
22675;SDS011;12521;43.310;21.876;2023-07-30T20:19:55;7.0;;;6.0;;
22675;SDS011;12521;43.310;21.876;2023-07-30T20:24:31;7.0;;;6.0;;
22675;SDS011;12521;43.310;21.876;2023-07-30T20:29:08;7.0;;;6.0;;
22675;SDS011;12521;43.310;21.876;2023-07-30T20:33:45;7.0;;;6.0;;
22675;SDS011;12521;43.310;21.876;2023-07-30T20:38:21;7.0;;;5.0;;
22675;SDS011;12521;43.310;21.876;2023-07-30T20:42:58;7.0;;;5.0;;
22675;SDS011;12521;43.310;21.876;2023-07-30T20:47:35;6.0;;;5.0;;
22675;SDS011;12521;43.310;21.876;2023-07-30T20:52:12;6.0;;;5.0;;
22675;SDS011;12521;43.310;21.876;2023-07-30T20:56:49;6.0;;;5.0;;
22675;SDS011;12521;43.310;21.876;2023-07-30T21:01:25;6.0;;;5.0;;
22675;SDS011;12521;43.310;21.876;2023-07-30T21:06:03;6.0;;;5.0;;
22675;SDS011;12521;43.310;21.876;2023-07-30T21:10:40;8.0;;;6.0;;
22675;SDS011;12521;43.310;21.876;2023-07-30T21:15:17;8.0;;;6.0;;
22675;SDS011;12521;43.310;21.876;2023-07-30T21:19:53;11.0;;;7.0;;
22675;SDS011;12521;43.310;21.876;2023-07-30T21:24:30;11.0;;;7.0;;
22675;SDS011;12521;43.310;21.876;2023-07-30T21:29:06;9.0;;;6.0;;
22675;SDS011;12521;43.310;21.876;2023-07-30T21:33:42;9.0;;;6.0;;
22675;SDS011;12521;43.310;21.876;2023-07-30T21:38:19;7.0;;;6.0;;
22675;SDS011;12521;43.310;21.876;2023-07-30T21:42:55;7.0;;;6.0;;
22675;SDS011;12521;43.310;21.876;2023-07-30T21:47:31;6.0;;;6.0;;
22675;SDS011;12521;43.310;21.876;2023-07-30T21:52:25;6.0;;;6.0;;
22675;SDS011;12521;43.310;21.876;2023-07-30T21:57:04;6.0;;;6.0;;
22675;SDS011;12521;43.310;21.876;2023-07-30T22:01:41;6.0;;;6.0;;
22675;SDS011;12521;43.310;21.876;2023-07-30T22:06:18;6.0;;;6.0;;
22675;SDS011;12521;43.310;21.876;2023-07-30T22:10:55;8.0;;;6.0;;
22675;SDS011;12521;43.310;21.876;2023-07-30T22:15:32;8.0;;;6.0;;
22675;SDS011;12521;43.310;21.876;2023-07-30T22:20:10;10.0;;;7.0;;
22675;SDS011;12521;43.310;21.876;2023-07-30T22:24:47;10.0;;;7.0;;
22675;SDS011;12521;43.310;21.876;2023-07-30T22:29:24;8.0;;;6.0;;
22675;SDS011;12521;43.310;21.876;2023-07-30T22:34:01;8.0;;;6.0;;
22675;SDS011;12521;43.310;21.876;2023-07-30T22:38:37;7.0;;;6.0;;
22675;SDS011;12521;43.310;21.876;2023-07-30T22:43:14;7.0;;;6.0;;
22675;SDS011;12521;43.310;21.876;2023-07-30T22:47:50;6.0;;;6.0;;
22675;SDS011;12521;43.310;21.876;2023-07-30T22:52:27;6.0;;;6.0;;
22675;SDS011;12521;43.310;21.876;2023-07-30T22:57:06;6.0;;;6.0;;
22675;SDS011;12521;43.310;21.876;2023-07-30T23:01:43;6.0;;;5.0;;
22675;SDS011;12521;43.310;21.876;2023-07-30T23:06:20;6.0;;;5.0;;
22675;SDS011;12521;43.310;21.876;2023-07-30T23:10:56;6.0;;;5.0;;
22675;SDS011;12521;43.310;21.876;2023-07-30T23:15:33;6.0;;;5.0;;
22675;SDS011;12521;43.310;21.876;2023-07-30T23:20:11;7.0;;;5.0;;
22675;SDS011;12521;43.310;21.876;2023-07-30T23:24:49;7.0;;;5.0;;
22675;SDS011;12521;43.310;21.876;2023-07-30T23:29:25;7.0;;;6.0;;
22675;SDS011;12521;43.310;21.876;2023-07-30T23:34:02;7.0;;;6.0;;
22675;SDS011;12521;43.310;21.876;2023-07-30T23:38:39;7.0;;;6.0;;
22675;SDS011;12521;43.310;21.876;2023-07-30T23:43:15;7.0;;;6.0;;
22675;SDS011;12521;43.310;21.876;2023-07-30T23:47:52;8.0;;;6.0;;
22675;SDS011;12521;43.310;21.876;2023-07-30T23:52:29;8.0;;;6.0;;
22675;SDS011;12521;43.310;21.876;2023-07-30T23:57:06;8.0;;;6.0;;
